Main page
METAR-TAF:

METAR-TAF

Airports :

Gran Canaria, Spain

Gran Canaria Airport

latitude: 27-56N, longitude: 015-23W, elevation: 23 m

Current weather observation

The report was made 30 minutes ago, at 13:30 UTC
Wind 18 kt from the North/Northeast
Temperature 19°C
Humidity 56%
Pressure 1020 hPa
Visibility 10 km or more
Few clouds at a height of 3000 ft
Broken clouds at a height of 5000 ft

METAR: GCLP 241330Z 03018KT 9999 FEW030 BKN050 19/10 Q1020 NOSIG

Time: 14:00 (14:00 UTC)

Forecast

The report was made 6 hours and 0 minutes ago, at 08:00 UTC
Forecast valid from 24 at 09 UTC to 25 at 09 UTC
Wind 18 kt from the North/Northeast
Visibility 10 km or more
Scattered clouds at a height of 4000 ft

TAF: GCLP 240800Z 2409/2509 03018KT 9999 SCT040 TX20/2414Z TN16/2506Z

Weather observations and forecasts of more than 4000 airports (METAR and TAF reports).

The available stations are represented by yellow and red dots on the map.

Hover mouse over dot to see the name of the station.

Then click to see weather observations and forecasts.

To change the map : click on the green buttons with a black cross to zoom in, on the green button with a dash to zoom out, or on the green arrows for adjacent maps.


METAR-TAF: